sensor_id;sensor_type;location;lat;lon;timestamp;temperature;humidity
72206;DHT22;60111;48.286;7.812;2023-10-09T00:00:46;12.50;76.40
72206;DHT22;60111;48.286;7.812;2023-10-09T00:03:23;12.50;76.60
72206;DHT22;60111;48.286;7.812;2023-10-09T00:05:58;12.40;76.90
72206;DHT22;60111;48.286;7.812;2023-10-09T00:08:32;12.40;76.90
72206;DHT22;60111;48.286;7.812;2023-10-09T00:11:06;12.30;77.10
72206;DHT22;60111;48.286;7.812;2023-10-09T00:13:46;12.20;77.20
72206;DHT22;60111;48.286;7.812;2023-10-09T00:16:25;12.20;77.70
72206;DHT22;60111;48.286;7.812;2023-10-09T00:19:08;12.10;77.80
72206;DHT22;60111;48.286;7.812;2023-10-09T00:21:48;12.20;78.20
72206;DHT22;60111;48.286;7.812;2023-10-09T00:24:21;12.10;77.90
72206;DHT22;60111;48.286;7.812;2023-10-09T00:26:55;12.10;77.90
72206;DHT22;60111;48.286;7.812;2023-10-09T00:29:30;12.10;78.20
72206;DHT22;60111;48.286;7.812;2023-10-09T00:32:04;12.00;78.30
72206;DHT22;60111;48.286;7.812;2023-10-09T00:34:47;12.00;78.20
72206;DHT22;60111;48.286;7.812;2023-10-09T00:37:21;12.00;78.30
72206;DHT22;60111;48.286;7.812;2023-10-09T00:40:01;11.90;78.40
72206;DHT22;60111;48.286;7.812;2023-10-09T00:42:35;11.90;78.50
72206;DHT22;60111;48.286;7.812;2023-10-09T00:45:09;11.90;78.50
72206;DHT22;60111;48.286;7.812;2023-10-09T00:47:43;11.80;78.30
72206;DHT22;60111;48.286;7.812;2023-10-09T00:50:18;11.80;78.60
72206;DHT22;60111;48.286;7.812;2023-10-09T00:52:54;11.70;78.90
72206;DHT22;60111;48.286;7.812;2023-10-09T00:55:39;11.70;79.10
72206;DHT22;60111;48.286;7.812;2023-10-09T00:58:17;11.80;78.40
72206;DHT22;60111;48.286;7.812;2023-10-09T01:00:51;11.70;77.90
72206;DHT22;60111;48.286;7.812;2023-10-09T01:03:24;11.60;78.70
72206;DHT22;60111;48.286;7.812;2023-10-09T01:05:58;11.60;78.80
72206;DHT22;60111;48.286;7.812;2023-10-09T01:08:42;11.50;79.00
72206;DHT22;60111;48.286;7.812;2023-10-09T01:11:17;11.50;79.00
72206;DHT22;60111;48.286;7.812;2023-10-09T01:13:54;11.50;79.30
72206;DHT22;60111;48.286;7.812;2023-10-09T01:16:30;11.40;79.60
72206;DHT22;60111;48.286;7.812;2023-10-09T01:19:02;11.40;79.60
72206;DHT22;60111;48.286;7.812;2023-10-09T01:21:37;11.30;80.00
72206;DHT22;60111;48.286;7.812;2023-10-09T01:24:11;11.30;79.90
72206;DHT22;60111;48.286;7.812;2023-10-09T01:26:43;11.20;79.80
72206;DHT22;60111;48.286;7.812;2023-10-09T01:29:21;11.30;79.90
72206;DHT22;60111;48.286;7.812;2023-10-09T01:31:57;11.30;79.90
72206;DHT22;60111;48.286;7.812;2023-10-09T01:34:33;11.30;79.70
72206;DHT22;60111;48.286;7.812;2023-10-09T01:37:16;11.30;79.40
72206;DHT22;60111;48.286;7.812;2023-10-09T01:39:58;11.30;79.60
72206;DHT22;60111;48.286;7.812;2023-10-09T01:42:31;11.30;79.60
72206;DHT22;60111;48.286;7.812;2023-10-09T01:45:07;11.30;80.00
72206;DHT22;60111;48.286;7.812;2023-10-09T01:47:43;11.30;80.20
72206;DHT22;60111;48.286;7.812;2023-10-09T01:50:17;11.20;80.10
72206;DHT22;60111;48.286;7.812;2023-10-09T01:52:59;11.20;80.20
72206;DHT22;60111;48.286;7.812;2023-10-09T01:55:33;11.30;80.30
72206;DHT22;60111;48.286;7.812;2023-10-09T01:58:08;11.30;80.50
72206;DHT22;60111;48.286;7.812;2023-10-09T02:00:42;11.20;80.30
72206;DHT22;60111;48.286;7.812;2023-10-09T02:03:16;11.20;80.40
72206;DHT22;60111;48.286;7.812;2023-10-09T02:05:49;11.10;80.50
72206;DHT22;60111;48.286;7.812;2023-10-09T02:08:22;11.10;80.30
72206;DHT22;60111;48.286;7.812;2023-10-09T02:10:56;11.10;80.40
72206;DHT22;60111;48.286;7.812;2023-10-09T02:13:29;11.00;80.50
72206;DHT22;60111;48.286;7.812;2023-10-09T02:16:03;11.10;80.40
72206;DHT22;60111;48.286;7.812;2023-10-09T02:18:46;11.10;80.30
72206;DHT22;60111;48.286;7.812;2023-10-09T02:21:27;11.10;80.30
72206;DHT22;60111;48.286;7.812;2023-10-09T02:24:07;10.90;80.00
72206;DHT22;60111;48.286;7.812;2023-10-09T02:26:40;10.90;80.00
72206;DHT22;60111;48.286;7.812;2023-10-09T02:29:26;10.90;80.30
72206;DHT22;60111;48.286;7.812;2023-10-09T02:31:59;10.90;80.40
72206;DHT22;60111;48.286;7.812;2023-10-09T02:34:33;10.90;80.50
72206;DHT22;60111;48.286;7.812;2023-10-09T02:37:07;10.90;80.50
72206;DHT22;60111;48.286;7.812;2023-10-09T02:39:42;10.90;80.40
72206;DHT22;60111;48.286;7.812;2023-10-09T02:42:19;10.90;80.50
72206;DHT22;60111;48.286;7.812;2023-10-09T02:44:53;10.90;80.50
72206;DHT22;60111;48.286;7.812;2023-10-09T02:47:26;10.90;79.80
72206;DHT22;60111;48.286;7.812;2023-10-09T02:50:04;10.80;79.90
72206;DHT22;60111;48.286;7.812;2023-10-09T02:52:41;10.80;80.60
72206;DHT22;60111;48.286;7.812;2023-10-09T02:55:14;10.80;80.70
72206;DHT22;60111;48.286;7.812;2023-10-09T02:57:48;10.70;80.80
72206;DHT22;60111;48.286;7.812;2023-10-09T03:00:23;10.70;81.10
72206;DHT22;60111;48.286;7.812;2023-10-09T03:02:57;10.70;80.90
72206;DHT22;60111;48.286;7.812;2023-10-09T03:05:30;10.80;80.10
72206;DHT22;60111;48.286;7.812;2023-10-09T03:08:03;10.70;80.20
72206;DHT22;60111;48.286;7.812;2023-10-09T03:10:36;10.70;80.60
72206;DHT22;60111;48.286;7.812;2023-10-09T03:13:10;10.70;80.80
72206;DHT22;60111;48.286;7.812;2023-10-09T03:15:42;10.70;81.20
72206;DHT22;60111;48.286;7.812;2023-10-09T03:18:15;10.70;81.20
72206;DHT22;60111;48.286;7.812;2023-10-09T03:20:48;10.60;81.40
72206;DHT22;60111;48.286;7.812;2023-10-09T03:23:20;10.60;81.80
72206;DHT22;60111;48.286;7.812;2023-10-09T03:25:53;10.60;81.90
72206;DHT22;60111;48.286;7.812;2023-10-09T03:28:26;10.60;81.90
72206;DHT22;60111;48.286;7.812;2023-10-09T03:30:58;10.60;81.90
72206;DHT22;60111;48.286;7.812;2023-10-09T03:33:32;10.60;81.80
72206;DHT22;60111;48.286;7.812;2023-10-09T03:36:05;10.60;81.70
72206;DHT22;60111;48.286;7.812;2023-10-09T03:38:40;10.50;81.70
72206;DHT22;60111;48.286;7.812;2023-10-09T03:41:14;10.50;81.40
72206;DHT22;60111;48.286;7.812;2023-10-09T03:43:48;10.50;81.20
72206;DHT22;60111;48.286;7.812;2023-10-09T03:46:22;10.50;81.50
72206;DHT22;60111;48.286;7.812;2023-10-09T03:48:56;10.50;81.20
72206;DHT22;60111;48.286;7.812;2023-10-09T03:51:30;10.50;81.40
72206;DHT22;60111;48.286;7.812;2023-10-09T03:54:04;10.50;81.40
72206;DHT22;60111;48.286;7.812;2023-10-09T03:56:37;10.50;81.70
72206;DHT22;60111;48.286;7.812;2023-10-09T03:59:10;10.50;81.80
72206;DHT22;60111;48.286;7.812;2023-10-09T04:01:44;10.50;81.80
72206;DHT22;60111;48.286;7.812;2023-10-09T04:04:17;10.60;81.60
72206;DHT22;60111;48.286;7.812;2023-10-09T04:06:52;10.60;82.00
72206;DHT22;60111;48.286;7.812;2023-10-09T04:09:24;10.60;82.10
72206;DHT22;60111;48.286;7.812;2023-10-09T04:11:58;10.70;81.80
72206;DHT22;60111;48.286;7.812;2023-10-09T04:14:38;10.70;81.70
72206;DHT22;60111;48.286;7.812;2023-10-09T04:17:26;10.80;81.50
72206;DHT22;60111;48.286;7.812;2023-10-09T04:20:04;11.00;80.90
72206;DHT22;60111;48.286;7.812;2023-10-09T04:22:48;10.90;80.90
72206;DHT22;60111;48.286;7.812;2023-10-09T04:25:25;10.90;80.60
72206;DHT22;60111;48.286;7.812;2023-10-09T04:27:59;10.90;80.80
72206;DHT22;60111;48.286;7.812;2023-10-09T04:30:42;10.90;80.40
72206;DHT22;60111;48.286;7.812;2023-10-09T04:33:27;10.90;80.80
72206;DHT22;60111;48.286;7.812;2023-10-09T04:36:08;10.80;81.20
72206;DHT22;60111;48.286;7.812;2023-10-09T04:38:46;10.70;81.40
72206;DHT22;60111;48.286;7.812;2023-10-09T04:41:30;10.70;81.60
72206;DHT22;60111;48.286;7.812;2023-10-09T04:44:07;10.60;81.90
72206;DHT22;60111;48.286;7.812;2023-10-09T04:46:51;10.60;81.70
72206;DHT22;60111;48.286;7.812;2023-10-09T04:49:44;10.60;81.80
72206;DHT22;60111;48.286;7.812;2023-10-09T04:52:24;10.50;82.10
72206;DHT22;60111;48.286;7.812;2023-10-09T04:55:05;10.50;82.00
72206;DHT22;60111;48.286;7.812;2023-10-09T04:57:44;10.50;82.20
72206;DHT22;60111;48.286;7.812;2023-10-09T05:00:18;10.50;82.50
72206;DHT22;60111;48.286;7.812;2023-10-09T05:03:01;10.60;82.20
72206;DHT22;60111;48.286;7.812;2023-10-09T05:05:39;10.60;82.30
72206;DHT22;60111;48.286;7.812;2023-10-09T05:08:17;10.60;82.40
72206;DHT22;60111;48.286;7.812;2023-10-09T05:10:58;10.60;82.50
72206;DHT22;60111;48.286;7.812;2023-10-09T05:13:36;10.60;82.60
72206;DHT22;60111;48.286;7.812;2023-10-09T05:16:17;10.60;82.40
72206;DHT22;60111;48.286;7.812;2023-10-09T05:18:51;10.70;82.60
72206;DHT22;60111;48.286;7.812;2023-10-09T05:21:36;10.70;82.70
72206;DHT22;60111;48.286;7.812;2023-10-09T05:24:11;10.80;82.20
72206;DHT22;60111;48.286;7.812;2023-10-09T05:26:48;10.80;82.10
72206;DHT22;60111;48.286;7.812;2023-10-09T05:29:24;10.90;82.10
72206;DHT22;60111;48.286;7.812;2023-10-09T05:32:04;10.90;82.20
72206;DHT22;60111;48.286;7.812;2023-10-09T05:34:39;10.90;82.50
72206;DHT22;60111;48.286;7.812;2023-10-09T05:37:32;10.90;82.40
72206;DHT22;60111;48.286;7.812;2023-10-09T05:40:06;11.00;82.30
72206;DHT22;60111;48.286;7.812;2023-10-09T05:42:50;11.10;81.90
72206;DHT22;60111;48.286;7.812;2023-10-09T05:45:33;11.10;81.80
72206;DHT22;60111;48.286;7.812;2023-10-09T05:48:23;11.10;82.00
72206;DHT22;60111;48.286;7.812;2023-10-09T05:50:58;11.20;82.20
72206;DHT22;60111;48.286;7.812;2023-10-09T05:53:44;11.20;82.00
72206;DHT22;60111;48.286;7.812;2023-10-09T05:56:18;11.20;82.00
72206;DHT22;60111;48.286;7.812;2023-10-09T05:59:08;11.30;81.30
72206;DHT22;60111;48.286;7.812;2023-10-09T06:01:59;11.20;81.60
72206;DHT22;60111;48.286;7.812;2023-10-09T06:04:36;11.30;82.00
72206;DHT22;60111;48.286;7.812;2023-10-09T06:07:23;11.30;81.90
72206;DHT22;60111;48.286;7.812;2023-10-09T06:09:57;11.40;81.40
72206;DHT22;60111;48.286;7.812;2023-10-09T06:12:31;11.40;81.20
72206;DHT22;60111;48.286;7.812;2023-10-09T06:15:05;11.60;80.80
72206;DHT22;60111;48.286;7.812;2023-10-09T06:17:58;11.60;80.90
72206;DHT22;60111;48.286;7.812;2023-10-09T06:20:32;11.50;80.80
72206;DHT22;60111;48.286;7.812;2023-10-09T06:23:22;11.50;81.10
72206;DHT22;60111;48.286;7.812;2023-10-09T06:25:56;11.60;81.10
72206;DHT22;60111;48.286;7.812;2023-10-09T06:28:31;11.60;81.10
72206;DHT22;60111;48.286;7.812;2023-10-09T06:31:07;11.60;80.70
72206;DHT22;60111;48.286;7.812;2023-10-09T06:33:51;11.70;80.90
72206;DHT22;60111;48.286;7.812;2023-10-09T06:36:25;11.70;80.40
72206;DHT22;60111;48.286;7.812;2023-10-09T06:38:59;11.70;80.50
72206;DHT22;60111;48.286;7.812;2023-10-09T06:41:50;11.60;80.60
72206;DHT22;60111;48.286;7.812;2023-10-09T06:44:26;11.70;80.40
72206;DHT22;60111;48.286;7.812;2023-10-09T06:47:00;11.60;80.80
72206;DHT22;60111;48.286;7.812;2023-10-09T06:49:34;11.60;80.60
72206;DHT22;60111;48.286;7.812;2023-10-09T06:52:08;11.60;80.60
72206;DHT22;60111;48.286;7.812;2023-10-09T06:54:46;11.60;81.10
72206;DHT22;60111;48.286;7.812;2023-10-09T06:57:20;11.60;81.50
72206;DHT22;60111;48.286;7.812;2023-10-09T06:59:54;11.60;81.30
72206;DHT22;60111;48.286;7.812;2023-10-09T07:02:45;11.60;81.50
72206;DHT22;60111;48.286;7.812;2023-10-09T07:05:20;11.70;81.70
72206;DHT22;60111;48.286;7.812;2023-10-09T07:07:53;11.80;81.90
72206;DHT22;60111;48.286;7.812;2023-10-09T07:10:26;11.90;81.60
72206;DHT22;60111;48.286;7.812;2023-10-09T07:13:03;12.20;81.20
72206;DHT22;60111;48.286;7.812;2023-10-09T07:15:36;12.40;80.00
72206;DHT22;60111;48.286;7.812;2023-10-09T07:18:27;12.60;79.20
72206;DHT22;60111;48.286;7.812;2023-10-09T07:21:02;12.70;78.50
72206;DHT22;60111;48.286;7.812;2023-10-09T07:23:36;12.90;77.70
72206;DHT22;60111;48.286;7.812;2023-10-09T07:26:10;13.10;78.20
72206;DHT22;60111;48.286;7.812;2023-10-09T07:28:53;13.20;77.50
72206;DHT22;60111;48.286;7.812;2023-10-09T07:31:27;13.30;76.60
72206;DHT22;60111;48.286;7.812;2023-10-09T07:34:02;13.40;76.20
72206;DHT22;60111;48.286;7.812;2023-10-09T07:36:35;13.50;77.30
72206;DHT22;60111;48.286;7.812;2023-10-09T07:39:09;13.70;76.70
72206;DHT22;60111;48.286;7.812;2023-10-09T07:41:49;13.90;75.40
72206;DHT22;60111;48.286;7.812;2023-10-09T07:44:28;14.00;74.90
72206;DHT22;60111;48.286;7.812;2023-10-09T07:47:08;14.10;75.30
72206;DHT22;60111;48.286;7.812;2023-10-09T07:49:47;14.30;76.20
72206;DHT22;60111;48.286;7.812;2023-10-09T07:52:25;14.50;75.70
72206;DHT22;60111;48.286;7.812;2023-10-09T07:54:58;14.60;75.10
72206;DHT22;60111;48.286;7.812;2023-10-09T07:57:35;14.90;75.30
72206;DHT22;60111;48.286;7.812;2023-10-09T08:00:10;15.10;75.10
72206;DHT22;60111;48.286;7.812;2023-10-09T08:02:47;15.30;74.60
72206;DHT22;60111;48.286;7.812;2023-10-09T08:05:19;15.40;74.00
72206;DHT22;60111;48.286;7.812;2023-10-09T08:07:54;15.60;74.30
72206;DHT22;60111;48.286;7.812;2023-10-09T08:10:27;15.70;73.80
72206;DHT22;60111;48.286;7.812;2023-10-09T08:13:04;15.80;73.50
72206;DHT22;60111;48.286;7.812;2023-10-09T08:15:56;16.00;72.80
72206;DHT22;60111;48.286;7.812;2023-10-09T08:18:31;16.10;72.60
72206;DHT22;60111;48.286;7.812;2023-10-09T08:21:06;16.30;71.50
72206;DHT22;60111;48.286;7.812;2023-10-09T08:23:40;16.40;72.30
72206;DHT22;60111;48.286;7.812;2023-10-09T08:26:22;16.60;71.20
72206;DHT22;60111;48.286;7.812;2023-10-09T08:29:00;16.70;71.20
72206;DHT22;60111;48.286;7.812;2023-10-09T08:31:48;16.90;70.40
72206;DHT22;60111;48.286;7.812;2023-10-09T08:34:22;17.10;68.00
72206;DHT22;60111;48.286;7.812;2023-10-09T08:36:58;17.30;68.80
72206;DHT22;60111;48.286;7.812;2023-10-09T08:39:32;17.60;69.40
72206;DHT22;60111;48.286;7.812;2023-10-09T08:42:06;17.80;67.70
72206;DHT22;60111;48.286;7.812;2023-10-09T08:44:40;18.00;66.80
72206;DHT22;60111;48.286;7.812;2023-10-09T08:47:15;18.20;67.50
72206;DHT22;60111;48.286;7.812;2023-10-09T08:49:48;18.40;66.00
72206;DHT22;60111;48.286;7.812;2023-10-09T08:52:24;18.50;67.10
72206;DHT22;60111;48.286;7.812;2023-10-09T08:54:56;18.80;66.10
72206;DHT22;60111;48.286;7.812;2023-10-09T08:57:29;19.00;64.30
72206;DHT22;60111;48.286;7.812;2023-10-09T09:00:02;19.30;61.70
72206;DHT22;60111;48.286;7.812;2023-10-09T09:02:36;19.70;60.20
72206;DHT22;60111;48.286;7.812;2023-10-09T09:05:20;20.00;58.30
72206;DHT22;60111;48.286;7.812;2023-10-09T09:07:53;20.10;58.40
72206;DHT22;60111;48.286;7.812;2023-10-09T09:10:30;20.40;57.40
72206;DHT22;60111;48.286;7.812;2023-10-09T09:13:14;20.50;57.10
72206;DHT22;60111;48.286;7.812;2023-10-09T09:15:49;20.70;57.10
72206;DHT22;60111;48.286;7.812;2023-10-09T09:18:23;20.90;56.60
72206;DHT22;60111;48.286;7.812;2023-10-09T09:20:58;21.10;55.70
72206;DHT22;60111;48.286;7.812;2023-10-09T09:23:30;21.30;56.00
72206;DHT22;60111;48.286;7.812;2023-10-09T09:26:03;21.50;53.90
72206;DHT22;60111;48.286;7.812;2023-10-09T09:28:51;21.70;54.10
72206;DHT22;60111;48.286;7.812;2023-10-09T09:31:13;21.80;54.40
72206;DHT22;60111;48.286;7.812;2023-10-09T09:33:55;22.00;53.60
72206;DHT22;60111;48.286;7.812;2023-10-09T09:36:24;22.10;53.00
72206;DHT22;60111;48.286;7.812;2023-10-09T09:38:58;22.30;52.60
72206;DHT22;60111;48.286;7.812;2023-10-09T09:41:34;22.50;52.00
72206;DHT22;60111;48.286;7.812;2023-10-09T09:44:07;22.50;51.00
72206;DHT22;60111;48.286;7.812;2023-10-09T09:46:40;22.60;51.50
72206;DHT22;60111;48.286;7.812;2023-10-09T09:49:14;22.50;50.50
72206;DHT22;60111;48.286;7.812;2023-10-09T09:51:51;22.60;51.40
72206;DHT22;60111;48.286;7.812;2023-10-09T09:54:24;22.60;51.50
72206;DHT22;60111;48.286;7.812;2023-10-09T09:56:58;22.70;51.30
72206;DHT22;60111;48.286;7.812;2023-10-09T09:59:35;22.60;50.30
72206;DHT22;60111;48.286;7.812;2023-10-09T10:02:10;22.70;51.10
72206;DHT22;60111;48.286;7.812;2023-10-09T10:04:45;22.70;51.30
72206;DHT22;60111;48.286;7.812;2023-10-09T10:07:20;22.70;50.80
72206;DHT22;60111;48.286;7.812;2023-10-09T10:09:56;22.70;51.30
72206;DHT22;60111;48.286;7.812;2023-10-09T10:12:49;22.80;50.70
72206;DHT22;60111;48.286;7.812;2023-10-09T10:15:24;22.90;51.30
72206;DHT22;60111;48.286;7.812;2023-10-09T10:21:00;22.90;50.80
72206;DHT22;60111;48.286;7.812;2023-10-09T10:23:19;23.10;51.40
72206;DHT22;60111;48.286;7.812;2023-10-09T10:25:53;23.30;52.20
72206;DHT22;60111;48.286;7.812;2023-10-09T10:28:28;23.70;49.70
72206;DHT22;60111;48.286;7.812;2023-10-09T10:31:02;23.90;49.90
72206;DHT22;60111;48.286;7.812;2023-10-09T10:36:29;24.20;48.40
72206;DHT22;60111;48.286;7.812;2023-10-09T10:39:04;24.30;47.70
72206;DHT22;60111;48.286;7.812;2023-10-09T10:41:38;24.30;48.50
72206;DHT22;60111;48.286;7.812;2023-10-09T10:44:13;24.40;47.90
72206;DHT22;60111;48.286;7.812;2023-10-09T10:47:07;24.70;48.60
72206;DHT22;60111;48.286;7.812;2023-10-09T10:49:56;25.10;46.80
72206;DHT22;60111;48.286;7.812;2023-10-09T10:52:30;25.20;46.70
72206;DHT22;60111;48.286;7.812;2023-10-09T10:55:12;25.10;47.10
72206;DHT22;60111;48.286;7.812;2023-10-09T10:58:18;25.10;47.50
72206;DHT22;60111;48.286;7.812;2023-10-09T11:00:56;25.10;46.20
72206;DHT22;60111;48.286;7.812;2023-10-09T11:03:30;25.00;46.20
72206;DHT22;60111;48.286;7.812;2023-10-09T11:06:30;24.90;46.70
72206;DHT22;60111;48.286;7.812;2023-10-09T11:09:09;24.80;47.00
72206;DHT22;60111;48.286;7.812;2023-10-09T11:11:43;24.80;46.80
72206;DHT22;60111;48.286;7.812;2023-10-09T11:14:17;24.70;47.30
72206;DHT22;60111;48.286;7.812;2023-10-09T11:16:51;24.60;47.90
72206;DHT22;60111;48.286;7.812;2023-10-09T11:19:26;24.60;48.10
72206;DHT22;60111;48.286;7.812;2023-10-09T11:22:01;24.50;48.60
72206;DHT22;60111;48.286;7.812;2023-10-09T11:24:39;24.50;48.50
72206;DHT22;60111;48.286;7.812;2023-10-09T11:27:12;24.60;48.50
72206;DHT22;60111;48.286;7.812;2023-10-09T11:29:51;24.60;49.00
72206;DHT22;60111;48.286;7.812;2023-10-09T11:32:26;24.60;48.90
72206;DHT22;60111;48.286;7.812;2023-10-09T11:35:14;24.60;48.80
72206;DHT22;60111;48.286;7.812;2023-10-09T11:37:58;24.50;49.90
72206;DHT22;60111;48.286;7.812;2023-10-09T11:40:32;24.40;50.50
72206;DHT22;60111;48.286;7.812;2023-10-09T11:43:25;24.40;49.90
72206;DHT22;60111;48.286;7.812;2023-10-09T11:46:16;24.30;50.70
72206;DHT22;60111;48.286;7.812;2023-10-09T11:49:02;24.30;50.80
72206;DHT22;60111;48.286;7.812;2023-10-09T11:51:27;24.30;50.90
72206;DHT22;60111;48.286;7.812;2023-10-09T11:54:00;24.30;50.80
72206;DHT22;60111;48.286;7.812;2023-10-09T11:56:32;24.30;51.70
72206;DHT22;60111;48.286;7.812;2023-10-09T11:59:05;24.20;51.60
72206;DHT22;60111;48.286;7.812;2023-10-09T12:01:39;24.20;51.60
72206;DHT22;60111;48.286;7.812;2023-10-09T12:04:13;24.10;51.70
72206;DHT22;60111;48.286;7.812;2023-10-09T12:06:47;24.20;51.70
72206;DHT22;60111;48.286;7.812;2023-10-09T12:09:21;24.20;52.50
72206;DHT22;60111;48.286;7.812;2023-10-09T12:11:55;24.30;52.60
72206;DHT22;60111;48.286;7.812;2023-10-09T12:14:28;24.30;52.70
72206;DHT22;60111;48.286;7.812;2023-10-09T12:17:06;24.40;52.60
72206;DHT22;60111;48.286;7.812;2023-10-09T12:19:39;24.40;52.80
72206;DHT22;60111;48.286;7.812;2023-10-09T12:22:12;24.50;52.90
72206;DHT22;60111;48.286;7.812;2023-10-09T12:24:46;24.60;52.60
72206;DHT22;60111;48.286;7.812;2023-10-09T12:27:19;24.70;52.40
72206;DHT22;60111;48.286;7.812;2023-10-09T12:29:51;24.80;52.20
72206;DHT22;60111;48.286;7.812;2023-10-09T12:32:24;24.80;51.60
72206;DHT22;60111;48.286;7.812;2023-10-09T12:34:56;24.80;51.90
72206;DHT22;60111;48.286;7.812;2023-10-09T12:37:29;24.90;51.80
72206;DHT22;60111;48.286;7.812;2023-10-09T12:40:03;25.10;50.70
72206;DHT22;60111;48.286;7.812;2023-10-09T12:42:37;25.20;49.90
72206;DHT22;60111;48.286;7.812;2023-10-09T12:45:10;25.30;49.00
72206;DHT22;60111;48.286;7.812;2023-10-09T12:47:44;25.30;48.50
72206;DHT22;60111;48.286;7.812;2023-10-09T12:50:18;25.40;47.80
72206;DHT22;60111;48.286;7.812;2023-10-09T12:53:02;25.60;47.50
72206;DHT22;60111;48.286;7.812;2023-10-09T12:55:27;25.80;47.50
72206;DHT22;60111;48.286;7.812;2023-10-09T12:58:01;26.00;46.90
72206;DHT22;60111;48.286;7.812;2023-10-09T13:00:41;26.20;45.80
72206;DHT22;60111;48.286;7.812;2023-10-09T13:03:19;26.40;45.20
72206;DHT22;60111;48.286;7.812;2023-10-09T13:05:54;26.50;45.70
72206;DHT22;60111;48.286;7.812;2023-10-09T13:08:28;26.70;43.20
72206;DHT22;60111;48.286;7.812;2023-10-09T13:11:06;26.90;42.30
72206;DHT22;60111;48.286;7.812;2023-10-09T13:13:43;26.90;42.60
72206;DHT22;60111;48.286;7.812;2023-10-09T13:16:22;26.90;44.60
72206;DHT22;60111;48.286;7.812;2023-10-09T13:18:58;26.80;43.30
72206;DHT22;60111;48.286;7.812;2023-10-09T13:21:33;26.70;44.60
72206;DHT22;60111;48.286;7.812;2023-10-09T13:24:06;26.70;44.10
72206;DHT22;60111;48.286;7.812;2023-10-09T13:26:44;26.60;45.10
72206;DHT22;60111;48.286;7.812;2023-10-09T13:29:18;26.70;44.10
72206;DHT22;60111;48.286;7.812;2023-10-09T13:31:57;26.80;45.60
72206;DHT22;60111;48.286;7.812;2023-10-09T13:34:31;26.90;45.30
72206;DHT22;60111;48.286;7.812;2023-10-09T13:37:04;27.10;44.80
72206;DHT22;60111;48.286;7.812;2023-10-09T13:39:38;27.20;43.90
72206;DHT22;60111;48.286;7.812;2023-10-09T13:42:12;27.10;43.40
72206;DHT22;60111;48.286;7.812;2023-10-09T13:44:45;27.20;43.90
72206;DHT22;60111;48.286;7.812;2023-10-09T13:47:20;27.20;43.60
72206;DHT22;60111;48.286;7.812;2023-10-09T13:49:53;27.30;43.40
72206;DHT22;60111;48.286;7.812;2023-10-09T13:52:25;27.40;43.30
72206;DHT22;60111;48.286;7.812;2023-10-09T13:54:58;27.40;42.50
72206;DHT22;60111;48.286;7.812;2023-10-09T13:57:32;27.40;42.40
72206;DHT22;60111;48.286;7.812;2023-10-09T14:00:06;27.30;42.70
72206;DHT22;60111;48.286;7.812;2023-10-09T14:02:40;27.40;42.90
72206;DHT22;60111;48.286;7.812;2023-10-09T14:05:15;27.30;43.20
72206;DHT22;60111;48.286;7.812;2023-10-09T14:07:47;27.40;42.20
72206;DHT22;60111;48.286;7.812;2023-10-09T14:10:20;27.40;42.60
72206;DHT22;60111;48.286;7.812;2023-10-09T14:12:54;27.20;42.60
72206;DHT22;60111;48.286;7.812;2023-10-09T14:15:28;27.00;43.20
72206;DHT22;60111;48.286;7.812;2023-10-09T14:18:00;26.90;42.60
72206;DHT22;60111;48.286;7.812;2023-10-09T14:20:34;26.70;43.00
72206;DHT22;60111;48.286;7.812;2023-10-09T14:23:07;26.60;44.10
72206;DHT22;60111;48.286;7.812;2023-10-09T14:25:41;26.50;44.50
72206;DHT22;60111;48.286;7.812;2023-10-09T14:28:15;26.40;45.10
72206;DHT22;60111;48.286;7.812;2023-10-09T14:30:52;26.40;45.20
72206;DHT22;60111;48.286;7.812;2023-10-09T14:33:27;26.40;45.00
72206;DHT22;60111;48.286;7.812;2023-10-09T14:36:01;26.30;45.40
72206;DHT22;60111;48.286;7.812;2023-10-09T14:38:35;26.30;45.80
72206;DHT22;60111;48.286;7.812;2023-10-09T14:41:09;26.30;46.20
72206;DHT22;60111;48.286;7.812;2023-10-09T14:43:43;26.30;46.50
72206;DHT22;60111;48.286;7.812;2023-10-09T14:46:15;26.30;46.90
72206;DHT22;60111;48.286;7.812;2023-10-09T14:48:49;26.20;46.90
72206;DHT22;60111;48.286;7.812;2023-10-09T14:51:22;26.20;46.80
72206;DHT22;60111;48.286;7.812;2023-10-09T14:53:59;26.20;46.60
72206;DHT22;60111;48.286;7.812;2023-10-09T14:56:34;26.10;47.10
72206;DHT22;60111;48.286;7.812;2023-10-09T14:59:07;26.00;47.90
72206;DHT22;60111;48.286;7.812;2023-10-09T15:01:41;26.00;48.30
72206;DHT22;60111;48.286;7.812;2023-10-09T15:04:15;26.00;48.40
72206;DHT22;60111;48.286;7.812;2023-10-09T15:06:49;26.00;48.30
72206;DHT22;60111;48.286;7.812;2023-10-09T15:09:22;26.00;47.90
72206;DHT22;60111;48.286;7.812;2023-10-09T15:11:57;26.00;49.50
72206;DHT22;60111;48.286;7.812;2023-10-09T15:14:30;26.00;48.70
72206;DHT22;60111;48.286;7.812;2023-10-09T15:17:03;26.10;48.40
72206;DHT22;60111;48.286;7.812;2023-10-09T15:19:38;26.20;47.50
72206;DHT22;60111;48.286;7.812;2023-10-09T15:22:10;26.20;47.40
72206;DHT22;60111;48.286;7.812;2023-10-09T15:24:43;26.20;47.40
72206;DHT22;60111;48.286;7.812;2023-10-09T15:27:16;26.10;48.00
72206;DHT22;60111;48.286;7.812;2023-10-09T15:29:49;26.00;47.80
72206;DHT22;60111;48.286;7.812;2023-10-09T15:32:22;26.00;48.50
72206;DHT22;60111;48.286;7.812;2023-10-09T15:34:57;25.90;48.60
72206;DHT22;60111;48.286;7.812;2023-10-09T15:37:30;25.90;49.30
72206;DHT22;60111;48.286;7.812;2023-10-09T15:40:04;25.90;49.70
72206;DHT22;60111;48.286;7.812;2023-10-09T15:42:37;25.80;49.90
72206;DHT22;60111;48.286;7.812;2023-10-09T15:45:10;25.80;49.90
72206;DHT22;60111;48.286;7.812;2023-10-09T15:47:43;25.70;50.00
72206;DHT22;60111;48.286;7.812;2023-10-09T15:50:21;25.60;50.10
72206;DHT22;60111;48.286;7.812;2023-10-09T15:52:56;25.50;49.90
72206;DHT22;60111;48.286;7.812;2023-10-09T15:55:29;25.40;50.10
72206;DHT22;60111;48.286;7.812;2023-10-09T15:58:03;25.20;50.50
72206;DHT22;60111;48.286;7.812;2023-10-09T16:00:37;25.10;51.00
72206;DHT22;60111;48.286;7.812;2023-10-09T16:03:11;25.00;51.70
72206;DHT22;60111;48.286;7.812;2023-10-09T16:05:45;24.90;52.20
72206;DHT22;60111;48.286;7.812;2023-10-09T16:08:18;24.70;53.20
72206;DHT22;60111;48.286;7.812;2023-10-09T16:10:52;24.60;54.20
72206;DHT22;60111;48.286;7.812;2023-10-09T16:13:25;24.30;55.00
72206;DHT22;60111;48.286;7.812;2023-10-09T16:15:59;24.20;54.90
72206;DHT22;60111;48.286;7.812;2023-10-09T16:18:32;24.00;55.60
72206;DHT22;60111;48.286;7.812;2023-10-09T16:21:06;23.90;55.90
72206;DHT22;60111;48.286;7.812;2023-10-09T16:23:40;23.70;55.70
72206;DHT22;60111;48.286;7.812;2023-10-09T16:26:13;23.60;56.30
72206;DHT22;60111;48.286;7.812;2023-10-09T16:28:47;23.50;56.40
72206;DHT22;60111;48.286;7.812;2023-10-09T16:31:21;23.40;56.20